Fisher Golf — FUGD — position and weather

sailwx.info

Track history (hours):
 
Tides and Currents Weather Stations Pressure Air Temp Water Temp Dewpoint Dewpoint Depression Visibility Wind Speed Wind Dir Waves Ship Positions

Fisher Golf

Last reported at 2016-Feb-01 14:09 UTC. Time now 2016-Feb-09 10:01 UTC.
Position N 46°26' W 003°19'.

Length 20 m.

Type: Fishing. MMSI: 228239000.

Date/timePositionNaut miles runAvg speedWind from/ knotsBaromVisibWave heightAir tempDewpointWater temp
2016-Feb-01 14:09N 46°26' W 003°19'12 1.9
2016-Feb-01 08:07N 46°22' W 003°35'1 2.6
2016-Feb-01 07:33N 46°21' W 003°35'3 2.7
2016-Feb-01 06:33N 46°18' W 003°34'3 2.7
2016-Feb-01 05:27N 46°15' W 003°34'3 3.1
2016-Feb-01 04:26N 46°12' W 003°36'3 2.8
2016-Feb-01 03:33N 46°10' W 003°38'  
2016-Jan-24 20:25N 45°56' W 002°57'3 3.0
2016-Jan-24 19:33N 45°54' W 002°54'3 2.8
2016-Jan-24 18:31N 45°51' W 002°53'3 2.7
2016-Jan-24 17:33N 45°48' W 002°53'3 2.8
2016-Jan-24 16:33N 45°46' W 002°51'3 2.6
2016-Jan-24 15:32N 45°45' W 002°47'2 2.5
2016-Jan-24 14:34N 45°43' W 002°46'3 3.1
2016-Jan-24 13:33N 45°40' W 002°47'3 3.1
2016-Jan-24 12:33N 45°38' W 002°51'3 3.1
2016-Jan-24 11:33N 45°39' W 002°55'3 2.5
2016-Jan-24 10:32N 45°41' W 002°57'3 2.6
2016-Jan-24 09:33N 45°44' W 002°59'3 2.6
2016-Jan-24 08:34N 45°46' W 002°58'3 3.1
2016-Jan-24 07:34N 45°47' W 002°53'3 3.3
2016-Jan-24 06:34N 45°46' W 002°49'3 2.7
2016-Jan-24 05:33N 45°44' W 002°46'3 2.8
2016-Jan-24 04:33N 45°41' W 002°46'3 2.5
2016-Jan-24 03:31N 45°39' W 002°48'3 3.1
2016-Jan-24 02:33N 45°38' W 002°52'3 3.0
2016-Jan-24 01:33N 45°38' W 002°57'11 2.7
2016-Jan-23 21:33N 45°48' W 003°02'4 2.8
2016-Jan-23 20:08N 45°52' W 003°02'19 0.8
2016-Jan-22 19:15N 46°11' W 003°06'2 1.2
2016-Jan-22 17:28N 46°09' W 003°05'  
Track history (hours):
 
Tides and Currents Weather Stations Pressure Air Temp Water Temp Dewpoint Dewpoint Depression Visibility Wind Speed Wind Dir Waves Ship Positions

Fisher Golf

Last reported at 2016-Feb-01 14:09 UTC. Time now 2016-Feb-09 10:01 UTC.
Position N 46°26' W 003°19'.

Length 20 m.

Type: Fishing. MMSI: 228239000.

Date/timePositionNaut miles runAvg speedWind from/ knotsBaromVisibWave heightAir tempDewpointWater temp
2016-Feb-01 14:09N 46°26' W 003°19'12 1.9
2016-Feb-01 08:07N 46°22' W 003°35'1 2.6
2016-Feb-01 07:33N 46°21' W 003°35'3 2.7
2016-Feb-01 06:33N 46°18' W 003°34'3 2.7
2016-Feb-01 05:27N 46°15' W 003°34'3 3.1
2016-Feb-01 04:26N 46°12' W 003°36'3 2.8
2016-Feb-01 03:33N 46°10' W 003°38'  
2016-Jan-24 20:25N 45°56' W 002°57'3 3.0
2016-Jan-24 19:33N 45°54' W 002°54'3 2.8
2016-Jan-24 18:31N 45°51' W 002°53'3 2.7
2016-Jan-24 17:33N 45°48' W 002°53'3 2.8
2016-Jan-24 16:33N 45°46' W 002°51'3 2.6
2016-Jan-24 15:32N 45°45' W 002°47'2 2.5
2016-Jan-24 14:34N 45°43' W 002°46'3 3.1
2016-Jan-24 13:33N 45°40' W 002°47'3 3.1
2016-Jan-24 12:33N 45°38' W 002°51'3 3.1
2016-Jan-24 11:33N 45°39' W 002°55'3 2.5
2016-Jan-24 10:32N 45°41' W 002°57'3 2.6
2016-Jan-24 09:33N 45°44' W 002°59'3 2.6
2016-Jan-24 08:34N 45°46' W 002°58'3 3.1
2016-Jan-24 07:34N 45°47' W 002°53'3 3.3
2016-Jan-24 06:34N 45°46' W 002°49'3 2.7
2016-Jan-24 05:33N 45°44' W 002°46'3 2.8
2016-Jan-24 04:33N 45°41' W 002°46'3 2.5
2016-Jan-24 03:31N 45°39' W 002°48'3 3.1
2016-Jan-24 02:33N 45°38' W 002°52'3 3.0
2016-Jan-24 01:33N 45°38' W 002°57'11 2.7
2016-Jan-23 21:33N 45°48' W 003°02'4 2.8
2016-Jan-23 20:08N 45°52' W 003°02'19 0.8
2016-Jan-22 19:15N 46°11' W 003°06'2 1.2
2016-Jan-22 17:28N 46°09' W 003°05'  

Dump ship's entire track history